DLH126 EDDF-ESSA
Flight info
| Callsign | DLH126 |
|---|---|
| Flight time | 1h 50m |
| Altitude | 35000 |
| Route | MARUN3W/25C MARUN Y150 TOLGI DCT OBATU DCT BERIM DCT ROSOK DCT SONAL DCT VIBAR/N0398F270 Z227 NILUG |
| Aircraft | A320/M-SDE3FGHIRWY/LB1 |
Departure
| Time | 2026-05-04 16:43 |
|---|---|
| Airport | Frankfurt Main Airport (EDDF) |
Arrival
| Time | 2026-05-04 18:33 |
|---|---|
| Airport | Stockholm-Arlanda Airport (ESSA) |
| Time | Latitude | Longitude | Altitude | Speed | Heading |
|---|---|---|---|---|---|
| 2026-05-04 16:02 | 50.04852 | 8.56946 | 356 ft | 0 kts | 295° |
| 2026-05-04 16:12 | 50.04852 | 8.56947 | 356 ft | 0 kts | 295° |
| 2026-05-04 16:32 | 50.04842 | 8.56981 | 360 ft | 4 kts | 293° |
| 2026-05-04 16:33 | 50.04831 | 8.57049 | 363 ft | 4 kts | 240° |
| 2026-05-04 16:33 | 50.04825 | 8.57057 | 361 ft | 4 kts | 205° |
| 2026-05-04 16:34 | 50.04792 | 8.57034 | 358 ft | 3 kts | 205° |
| 2026-05-04 16:37 | 50.04780 | 8.57024 | 364 ft | 4 kts | 205° |
| 2026-05-04 16:37 | 50.04669 | 8.56945 | 358 ft | 11 kts | 205° |
| 2026-05-04 16:38 | 50.04552 | 8.56892 | 362 ft | 6 kts | 193° |
| 2026-05-04 16:39 | 50.04365 | 8.56566 | 358 ft | 11 kts | 192° |
| 2026-05-04 16:39 | 50.04236 | 8.56647 | 359 ft | 15 kts | 134° |
| 2026-05-04 16:40 | 50.04291 | 8.56963 | 362 ft | 21 kts | 70° |
| 2026-05-04 16:40 | 50.04411 | 8.57467 | 361 ft | 26 kts | 69° |
| 2026-05-04 16:41 | 50.04515 | 8.57900 | 368 ft | 26 kts | 69° |
| 2026-05-04 16:41 | 50.04633 | 8.58563 | 368 ft | 15 kts | 148° |
| 2026-05-04 16:42 | 50.04460 | 8.58478 | 370 ft | 17 kts | 250° |
| 2026-05-04 16:43 | 50.03991 | 8.56515 | 360 ft | 168 kts | 249° |
| 2026-05-04 16:43 | 50.03027 | 8.52847 | 1599 ft | 186 kts | 250° |
| 2026-05-04 16:43 | 50.02541 | 8.50855 | 2057 ft | 199 kts | 246° |
| 2026-05-04 16:44 | 49.97467 | 8.47391 | 4992 ft | 211 kts | 189° |
| 2026-05-04 16:45 | 49.94602 | 8.46418 | 6263 ft | 228 kts | 196° |
| 2026-05-04 16:46 | 49.90777 | 8.42178 | 8433 ft | 247 kts | 250° |
| 2026-05-04 16:46 | 49.91454 | 8.36997 | 10032 ft | 270 kts | 307° |
| 2026-05-04 16:47 | 49.94890 | 8.34162 | 11008 ft | 304 kts | 335° |
| 2026-05-04 16:47 | 49.99078 | 8.31442 | 11458 ft | 348 kts | 334° |
| 2026-05-04 16:48 | 50.06186 | 8.29001 | 12908 ft | 368 kts | 4° |
| 2026-05-04 16:48 | 50.08704 | 8.29753 | 13033 ft | 370 kts | 18° |
| 2026-05-04 16:49 | 50.13545 | 8.32371 | 14384 ft | 375 kts | 19° |
| 2026-05-04 16:49 | 50.18550 | 8.34986 | 15637 ft | 383 kts | 18° |
| 2026-05-04 16:50 | 50.23644 | 8.37636 | 16811 ft | 391 kts | 18° |
| 2026-05-04 16:50 | 50.28851 | 8.40358 | 17946 ft | 400 kts | 18° |
| 2026-05-04 16:51 | 50.34156 | 8.43210 | 18969 ft | 407 kts | 18° |
| 2026-05-04 16:51 | 50.36819 | 8.44672 | 19473 ft | 410 kts | 19° |
| 2026-05-04 16:51 | 50.42252 | 8.47674 | 20460 ft | 416 kts | 18° |
| 2026-05-04 16:52 | 50.47760 | 8.50704 | 21403 ft | 421 kts | 18° |
| 2026-05-04 16:52 | 50.50531 | 8.52130 | 21877 ft | 424 kts | 16° |
| 2026-05-04 16:53 | 50.56228 | 8.54816 | 22806 ft | 429 kts | 15° |
| 2026-05-04 16:53 | 50.64918 | 8.58860 | 24043 ft | 438 kts | 15° |
| 2026-05-04 16:54 | 50.67848 | 8.60266 | 24388 ft | 440 kts | 15° |
| 2026-05-04 16:55 | 50.79545 | 8.66507 | 25768 ft | 452 kts | 27° |
| 2026-05-04 16:55 | 50.84544 | 8.72509 | 26431 ft | 458 kts | 47° |
| 2026-05-04 16:56 | 50.88509 | 8.80480 | 27084 ft | 462 kts | 53° |
| 2026-05-04 16:56 | 50.94370 | 8.92737 | 28067 ft | 469 kts | 53° |
| 2026-05-04 16:57 | 50.96347 | 8.96883 | 28383 ft | 471 kts | 53° |
| 2026-05-04 16:57 | 51.00326 | 9.05248 | 28967 ft | 477 kts | 54° |
| 2026-05-04 16:58 | 51.06332 | 9.17957 | 29787 ft | 484 kts | 53° |
| 2026-05-04 16:58 | 51.08564 | 9.21960 | 30084 ft | 487 kts | 43° |
| 2026-05-04 16:59 | 51.14102 | 9.28150 | 30611 ft | 488 kts | 24° |
| 2026-05-04 17:00 | 51.27087 | 9.33654 | 31952 ft | 482 kts | 9° |
| 2026-05-04 17:00 | 51.36904 | 9.37099 | 32933 ft | 479 kts | 9° |
| 2026-05-04 17:01 | 51.43419 | 9.39369 | 33657 ft | 477 kts | 8° |
| 2026-05-04 17:01 | 51.49866 | 9.41623 | 34302 ft | 476 kts | 8° |
| 2026-05-04 17:02 | 51.56335 | 9.43894 | 34849 ft | 475 kts | 8° |
| 2026-05-04 17:02 | 51.62784 | 9.46163 | 34966 ft | 471 kts | 9° |
| 2026-05-04 17:03 | 51.65957 | 9.47285 | 34963 ft | 470 kts | 9° |
| 2026-05-04 17:03 | 51.75525 | 9.50668 | 34967 ft | 470 kts | 8° |
| 2026-05-04 17:04 | 51.87795 | 9.58048 | 34963 ft | 478 kts | 29° |
| 2026-05-04 17:05 | 51.99142 | 9.69322 | 34948 ft | 478 kts | 28° |
| 2026-05-04 17:06 | 52.07662 | 9.77756 | 34955 ft | 479 kts | 28° |
| 2026-05-04 17:07 | 52.15238 | 9.85323 | 34966 ft | 479 kts | 28° |
| 2026-05-04 17:07 | 52.21852 | 9.91959 | 34949 ft | 480 kts | 28° |
| 2026-05-04 17:08 | 52.30406 | 10.00566 | 34953 ft | 481 kts | 28° |
| 2026-05-04 17:09 | 52.36075 | 10.06293 | 34966 ft | 481 kts | 28° |
| 2026-05-04 17:09 | 52.41776 | 10.12071 | 34946 ft | 481 kts | 28° |
| 2026-05-04 17:10 | 52.56010 | 10.26576 | 34940 ft | 482 kts | 28° |
| 2026-05-04 17:11 | 52.61690 | 10.32407 | 34972 ft | 482 kts | 28° |
| 2026-05-04 17:12 | 52.70172 | 10.41135 | 34966 ft | 481 kts | 28° |
| 2026-05-04 17:13 | 52.84471 | 10.55528 | 34973 ft | 480 kts | 27° |
| 2026-05-04 17:14 | 52.95836 | 10.67034 | 34964 ft | 480 kts | 27° |
| 2026-05-04 17:15 | 53.04345 | 10.75701 | 34952 ft | 479 kts | 27° |
| 2026-05-04 17:16 | 53.15635 | 10.87271 | 34960 ft | 479 kts | 27° |
| 2026-05-04 17:17 | 53.26989 | 10.98980 | 34979 ft | 479 kts | 27° |
| 2026-05-04 17:18 | 53.38289 | 11.10701 | 34976 ft | 478 kts | 27° |
| 2026-05-04 17:19 | 53.49573 | 11.22480 | 34998 ft | 478 kts | 27° |
| 2026-05-04 17:20 | 53.60834 | 11.34310 | 34998 ft | 475 kts | 27° |
| 2026-05-04 17:20 | 53.69191 | 11.43142 | 34990 ft | 474 kts | 27° |
| 2026-05-04 17:21 | 53.80081 | 11.55722 | 35005 ft | 475 kts | 33° |
| 2026-05-04 17:22 | 53.85361 | 11.62566 | 34986 ft | 475 kts | 33° |
| 2026-05-04 17:23 | 53.95927 | 11.75936 | 35000 ft | 475 kts | 32° |
| 2026-05-04 17:24 | 54.03904 | 11.85937 | 34988 ft | 475 kts | 32° |
| 2026-05-04 17:25 | 54.13595 | 11.98214 | 34984 ft | 475 kts | 32° |
| 2026-05-04 17:26 | 54.24308 | 12.11107 | 34984 ft | 471 kts | 26° |
| 2026-05-04 17:27 | 54.38156 | 12.26222 | 34970 ft | 473 kts | 28° |
| 2026-05-04 17:28 | 54.49223 | 12.38433 | 34983 ft | 473 kts | 28° |
| 2026-05-04 17:29 | 54.65783 | 12.56800 | 34983 ft | 474 kts | 28° |
| 2026-05-04 17:31 | 54.79626 | 12.72313 | 34963 ft | 474 kts | 28° |
| 2026-05-04 17:32 | 54.93405 | 12.87889 | 34975 ft | 473 kts | 29° |
| 2026-05-04 17:33 | 55.04444 | 13.00446 | 34966 ft | 473 kts | 29° |
| 2026-05-04 17:34 | 55.15386 | 13.13005 | 34979 ft | 472 kts | 29° |
| 2026-05-04 17:35 | 55.29071 | 13.28781 | 34953 ft | 471 kts | 29° |
| 2026-05-04 17:36 | 55.34544 | 13.35141 | 34951 ft | 471 kts | 30° |
| 2026-05-04 17:36 | 55.40000 | 13.41505 | 34935 ft | 471 kts | 29° |
| 2026-05-04 17:37 | 55.45443 | 13.47873 | 34925 ft | 472 kts | 29° |
| 2026-05-04 17:37 | 55.50915 | 13.54290 | 34927 ft | 472 kts | 29° |
| 2026-05-04 17:38 | 55.56394 | 13.60730 | 34955 ft | 473 kts | 30° |
| 2026-05-04 17:38 | 55.61873 | 13.67201 | 34952 ft | 472 kts | 30° |
| 2026-05-04 17:39 | 55.70035 | 13.76898 | 34943 ft | 472 kts | 30° |
| 2026-05-04 17:39 | 55.75492 | 13.83405 | 34931 ft | 471 kts | 30° |
| 2026-05-04 17:40 | 55.80926 | 13.89899 | 34949 ft | 471 kts | 30° |
| 2026-05-04 17:40 | 55.86329 | 13.96382 | 34943 ft | 470 kts | 30° |
| 2026-05-04 17:41 | 55.91753 | 14.02913 | 34939 ft | 469 kts | 30° |
| 2026-05-04 17:41 | 55.97169 | 14.09447 | 34932 ft | 469 kts | 30° |
| 2026-05-04 17:42 | 56.02504 | 14.15898 | 34929 ft | 468 kts | 30° |
| 2026-05-04 17:42 | 56.07768 | 14.22294 | 34951 ft | 467 kts | 30° |
| 2026-05-04 17:43 | 56.13122 | 14.28839 | 34937 ft | 465 kts | 30° |
| 2026-05-04 17:43 | 56.18450 | 14.35368 | 34930 ft | 464 kts | 30° |
| 2026-05-04 17:44 | 56.23796 | 14.41925 | 34919 ft | 463 kts | 30° |
| 2026-05-04 17:44 | 56.29106 | 14.48470 | 34925 ft | 463 kts | 31° |
| 2026-05-04 17:45 | 56.34389 | 14.55022 | 34913 ft | 463 kts | 31° |
| 2026-05-04 17:45 | 56.39707 | 14.61609 | 34908 ft | 462 kts | 31° |
| 2026-05-04 17:46 | 56.45017 | 14.68222 | 34895 ft | 462 kts | 31° |
| 2026-05-04 17:46 | 56.50229 | 14.74750 | 34892 ft | 462 kts | 31° |
| 2026-05-04 17:47 | 56.55521 | 14.81369 | 34906 ft | 462 kts | 31° |
| 2026-05-04 17:47 | 56.60760 | 14.87946 | 34893 ft | 461 kts | 31° |
| 2026-05-04 17:48 | 56.66033 | 14.94594 | 34879 ft | 461 kts | 31° |
| 2026-05-04 17:48 | 56.71295 | 15.01244 | 34874 ft | 461 kts | 31° |
| 2026-05-04 17:49 | 56.76543 | 15.07929 | 34889 ft | 461 kts | 31° |
| 2026-05-04 17:49 | 56.81797 | 15.14654 | 34866 ft | 461 kts | 31° |
| 2026-05-04 17:50 | 56.87068 | 15.21398 | 34863 ft | 461 kts | 31° |
| 2026-05-04 17:50 | 56.92301 | 15.28110 | 34849 ft | 461 kts | 31° |
| 2026-05-04 17:51 | 56.97561 | 15.34895 | 34845 ft | 461 kts | 31° |
| 2026-05-04 17:51 | 57.02819 | 15.41703 | 34847 ft | 462 kts | 31° |
| 2026-05-04 17:52 | 57.08043 | 15.48490 | 34825 ft | 462 kts | 31° |
| 2026-05-04 17:52 | 57.13299 | 15.55347 | 34832 ft | 462 kts | 31° |
| 2026-05-04 17:53 | 57.18557 | 15.62215 | 34810 ft | 462 kts | 31° |
| 2026-05-04 17:53 | 57.23764 | 15.69042 | 34834 ft | 462 kts | 31° |
| 2026-05-04 17:54 | 57.29041 | 15.75994 | 34821 ft | 462 kts | 31° |
| 2026-05-04 17:54 | 57.34251 | 15.82887 | 34817 ft | 462 kts | 31° |
| 2026-05-04 17:55 | 57.39469 | 15.89808 | 34806 ft | 463 kts | 31° |
| 2026-05-04 17:55 | 57.44714 | 15.96792 | 34804 ft | 463 kts | 31° |
| 2026-05-04 17:56 | 57.49959 | 16.03794 | 34816 ft | 463 kts | 31° |
| 2026-05-04 17:56 | 57.55162 | 16.10772 | 34800 ft | 463 kts | 31° |
| 2026-05-04 17:57 | 57.60370 | 16.17772 | 34790 ft | 464 kts | 31° |
| 2026-05-04 17:57 | 57.65573 | 16.24811 | 34781 ft | 464 kts | 31° |
| 2026-05-04 17:58 | 57.70815 | 16.31924 | 34560 ft | 465 kts | 31° |
| 2026-05-04 17:58 | 57.73424 | 16.35467 | 34332 ft | 464 kts | 31° |
| 2026-05-04 17:58 | 57.76043 | 16.39033 | 34081 ft | 463 kts | 31° |
| 2026-05-04 17:59 | 57.78613 | 16.42544 | 33860 ft | 463 kts | 31° |
| 2026-05-04 17:59 | 57.81223 | 16.46114 | 33595 ft | 462 kts | 31° |
| 2026-05-04 17:59 | 57.86407 | 16.53215 | 33040 ft | 459 kts | 31° |
| 2026-05-04 18:00 | 57.88987 | 16.56720 | 32769 ft | 455 kts | 27° |
| 2026-05-04 18:00 | 57.91746 | 16.59536 | 32501 ft | 447 kts | 21° |
| 2026-05-04 18:00 | 57.94502 | 16.62145 | 32270 ft | 446 kts | 20° |
| 2026-05-04 18:00 | 57.97266 | 16.64771 | 32011 ft | 445 kts | 20° |
| 2026-05-04 18:01 | 58.00000 | 16.67369 | 31752 ft | 444 kts | 20° |
| 2026-05-04 18:01 | 58.02744 | 16.69977 | 31495 ft | 442 kts | 20° |
| 2026-05-04 18:01 | 58.05484 | 16.72586 | 31232 ft | 441 kts | 21° |
| 2026-05-04 18:02 | 58.10948 | 16.77805 | 30733 ft | 437 kts | 21° |
| 2026-05-04 18:02 | 58.13638 | 16.80375 | 30485 ft | 436 kts | 21° |
| 2026-05-04 18:02 | 58.16369 | 16.82991 | 30233 ft | 434 kts | 21° |
| 2026-05-04 18:02 | 58.19041 | 16.85560 | 29990 ft | 433 kts | 21° |
| 2026-05-04 18:03 | 58.21725 | 16.88146 | 29770 ft | 432 kts | 20° |
| 2026-05-04 18:03 | 58.24394 | 16.90723 | 29472 ft | 432 kts | 21° |
| 2026-05-04 18:03 | 58.27068 | 16.93311 | 29172 ft | 428 kts | 20° |
| 2026-05-04 18:03 | 58.29725 | 16.95878 | 28895 ft | 426 kts | 20° |
| 2026-05-04 18:04 | 58.32347 | 16.98414 | 28618 ft | 424 kts | 20° |
| 2026-05-04 18:04 | 58.34966 | 17.00957 | 28346 ft | 423 kts | 20° |
| 2026-05-04 18:04 | 58.40159 | 17.06018 | 27799 ft | 419 kts | 20° |
| 2026-05-04 18:05 | 58.42779 | 17.08577 | 27526 ft | 418 kts | 20° |
| 2026-05-04 18:05 | 58.45332 | 17.11074 | 27264 ft | 416 kts | 20° |
| 2026-05-04 18:05 | 58.47912 | 17.13596 | 27028 ft | 415 kts | 20° |
| 2026-05-04 18:05 | 58.50491 | 17.16120 | 26765 ft | 414 kts | 20° |
| 2026-05-04 18:06 | 58.55582 | 17.21118 | 26242 ft | 411 kts | 20° |
| 2026-05-04 18:06 | 58.58119 | 17.23619 | 25990 ft | 410 kts | 20° |
| 2026-05-04 18:06 | 58.60575 | 17.26044 | 25742 ft | 409 kts | 20° |
| 2026-05-04 18:07 | 58.63101 | 17.28545 | 25481 ft | 407 kts | 20° |
| 2026-05-04 18:07 | 58.65617 | 17.31036 | 25256 ft | 406 kts | 20° |
| 2026-05-04 18:07 | 58.68130 | 17.33528 | 25004 ft | 405 kts | 20° |
| 2026-05-04 18:07 | 58.70639 | 17.36021 | 24748 ft | 404 kts | 20° |
| 2026-05-04 18:08 | 58.72287 | 17.37661 | 24633 ft | 404 kts | 19° |
| 2026-05-04 18:08 | 58.74761 | 17.40120 | 24394 ft | 404 kts | 19° |
| 2026-05-04 18:08 | 58.77224 | 17.42570 | 24155 ft | 404 kts | 19° |
| 2026-05-04 18:08 | 58.79742 | 17.45084 | 23915 ft | 403 kts | 19° |
| 2026-05-04 18:09 | 58.84673 | 17.50029 | 23449 ft | 400 kts | 19° |
| 2026-05-04 18:09 | 58.89614 | 17.54994 | 22904 ft | 398 kts | 19° |
| 2026-05-04 18:10 | 58.92070 | 17.57465 | 22629 ft | 396 kts | 19° |
| 2026-05-04 18:10 | 58.94496 | 17.59909 | 22348 ft | 395 kts | 19° |
| 2026-05-04 18:10 | 58.96936 | 17.62371 | 22083 ft | 393 kts | 20° |
| 2026-05-04 18:10 | 58.99370 | 17.64831 | 21847 ft | 394 kts | 19° |
| 2026-05-04 18:11 | 59.01797 | 17.67291 | 21584 ft | 394 kts | 20° |
| 2026-05-04 18:11 | 59.04233 | 17.69767 | 21315 ft | 392 kts | 20° |
| 2026-05-04 18:11 | 59.06645 | 17.72225 | 21056 ft | 391 kts | 20° |
| 2026-05-04 18:11 | 59.09013 | 17.74647 | 20791 ft | 390 kts | 20° |
| 2026-05-04 18:12 | 59.11377 | 17.77067 | 20538 ft | 388 kts | 20° |
| 2026-05-04 18:12 | 59.13763 | 17.79509 | 20280 ft | 386 kts | 20° |
| 2026-05-04 18:12 | 59.16116 | 17.81913 | 20023 ft | 385 kts | 20° |
| 2026-05-04 18:12 | 59.18487 | 17.84340 | 19748 ft | 382 kts | 20° |
| 2026-05-04 18:13 | 59.20838 | 17.86750 | 19307 ft | 380 kts | 20° |
| 2026-05-04 18:13 | 59.23178 | 17.89152 | 18859 ft | 380 kts | 20° |
| 2026-05-04 18:13 | 59.28000 | 17.93194 | 17944 ft | 372 kts | 13° |
| 2026-05-04 18:14 | 59.30411 | 17.94936 | 17309 ft | 375 kts | 13° |
| 2026-05-04 18:14 | 59.32859 | 17.96688 | 17010 ft | 368 kts | 13° |
| 2026-05-04 18:14 | 59.35240 | 17.98403 | 16696 ft | 362 kts | 13° |
| 2026-05-04 18:15 | 59.39990 | 18.01797 | 15678 ft | 363 kts | 13° |
| 2026-05-04 18:15 | 59.44708 | 18.05127 | 14712 ft | 359 kts | 13° |
| 2026-05-04 18:15 | 59.47029 | 18.06762 | 14266 ft | 348 kts | 13° |
| 2026-05-04 18:16 | 59.49256 | 18.08334 | 13828 ft | 343 kts | 13° |
| 2026-05-04 18:16 | 59.51499 | 18.09912 | 13416 ft | 341 kts | 13° |
| 2026-05-04 18:16 | 59.53713 | 18.11452 | 12935 ft | 338 kts | 13° |
| 2026-05-04 18:17 | 59.58121 | 18.14462 | 12033 ft | 337 kts | 13° |
| 2026-05-04 18:17 | 59.60363 | 18.15968 | 11479 ft | 338 kts | 13° |
| 2026-05-04 18:17 | 59.64626 | 18.18786 | 10425 ft | 320 kts | 13° |
| 2026-05-04 18:18 | 59.66720 | 18.20151 | 9906 ft | 313 kts | 13° |
| 2026-05-04 18:18 | 59.68759 | 18.21467 | 9384 ft | 304 kts | 13° |
| 2026-05-04 18:18 | 59.70725 | 18.22732 | 8909 ft | 293 kts | 13° |
| 2026-05-04 18:18 | 59.72632 | 18.23973 | 8345 ft | 287 kts | 13° |
| 2026-05-04 18:19 | 59.76344 | 18.25214 | 7146 ft | 264 kts | 343° |
| 2026-05-04 18:19 | 59.78099 | 18.24302 | 6562 ft | 261 kts | 339° |
| 2026-05-04 18:19 | 59.79823 | 18.23267 | 5979 ft | 257 kts | 338° |
| 2026-05-04 18:20 | 59.81529 | 18.22230 | 5547 ft | 255 kts | 338° |
| 2026-05-04 18:20 | 59.83207 | 18.21198 | 4901 ft | 253 kts | 338° |
| 2026-05-04 18:20 | 59.84873 | 18.20123 | 4189 ft | 249 kts | 332° |
| 2026-05-04 18:20 | 59.86204 | 18.18090 | 3514 ft | 238 kts | 302° |
| 2026-05-04 18:21 | 59.86769 | 18.15120 | 2838 ft | 232 kts | 274° |
| 2026-05-04 18:21 | 59.86772 | 18.11949 | 2501 ft | 219 kts | 262° |
| 2026-05-04 18:21 | 59.86172 | 18.09332 | 2454 ft | 203 kts | 234° |
| 2026-05-04 18:21 | 59.85193 | 18.07317 | 2462 ft | 205 kts | 223° |
| 2026-05-04 18:22 | 59.83898 | 18.05994 | 2544 ft | 215 kts | 198° |
| 2026-05-04 18:22 | 59.82442 | 18.05967 | 2609 ft | 212 kts | 171° |
| 2026-05-04 18:22 | 59.81133 | 18.07302 | 2692 ft | 216 kts | 142° |
| 2026-05-04 18:22 | 59.80139 | 18.09506 | 2751 ft | 214 kts | 145° |
| 2026-05-04 18:23 | 59.78840 | 18.10656 | 2733 ft | 199 kts | 185° |
| 2026-05-04 18:23 | 59.77518 | 18.10309 | 2783 ft | 194 kts | 189° |
| 2026-05-04 18:23 | 59.76171 | 18.10972 | 2886 ft | 210 kts | 153° |
| 2026-05-04 18:23 | 59.75191 | 18.13152 | 2969 ft | 221 kts | 115° |
| 2026-05-04 18:24 | 59.74955 | 18.16155 | 3071 ft | 223 kts | 80° |
| 2026-05-04 18:24 | 59.75534 | 18.18949 | 3089 ft | 216 kts | 43° |
| 2026-05-04 18:24 | 59.76725 | 18.20560 | 3086 ft | 204 kts | 14° |
| 2026-05-04 18:24 | 59.78041 | 18.21451 | 2931 ft | 200 kts | 10° |
| 2026-05-04 18:25 | 59.79381 | 18.22206 | 2528 ft | 200 kts | 8° |
| 2026-05-04 18:25 | 59.80715 | 18.22910 | 2473 ft | 199 kts | 8° |
| 2026-05-04 18:25 | 59.82068 | 18.23425 | 2460 ft | 193 kts | 349° |
| 2026-05-04 18:25 | 59.83236 | 18.22521 | 2464 ft | 178 kts | 310° |
| 2026-05-04 18:26 | 59.83817 | 18.20434 | 2469 ft | 173 kts | 283° |
| 2026-05-04 18:26 | 59.84063 | 18.18137 | 2465 ft | 173 kts | 279° |
| 2026-05-04 18:26 | 59.84261 | 18.15771 | 2464 ft | 173 kts | 278° |
| 2026-05-04 18:26 | 59.84443 | 18.13425 | 2461 ft | 173 kts | 278° |
| 2026-05-04 18:27 | 59.84625 | 18.11055 | 2465 ft | 173 kts | 278° |
| 2026-05-04 18:27 | 59.84805 | 18.08690 | 2460 ft | 174 kts | 275° |
| 2026-05-04 18:27 | 59.84548 | 18.06398 | 2463 ft | 176 kts | 239° |
| 2026-05-04 18:27 | 59.83724 | 18.04552 | 2468 ft | 182 kts | 221° |
| 2026-05-04 18:28 | 59.82575 | 18.03491 | 2496 ft | 188 kts | 206° |
| 2026-05-04 18:28 | 59.81441 | 18.02627 | 2478 ft | 161 kts | 211° |
| 2026-05-04 18:28 | 59.80460 | 18.01811 | 2447 ft | 151 kts | 205° |
| 2026-05-04 18:28 | 59.79460 | 18.01311 | 2446 ft | 146 kts | 202° |
| 2026-05-04 18:29 | 59.78470 | 18.00892 | 2458 ft | 145 kts | 200° |
| 2026-05-04 18:29 | 59.77479 | 18.00502 | 2460 ft | 145 kts | 200° |
| 2026-05-04 18:29 | 59.76488 | 18.00128 | 2405 ft | 144 kts | 199° |
| 2026-05-04 18:29 | 59.75539 | 17.99777 | 2277 ft | 139 kts | 200° |
| 2026-05-04 18:30 | 59.73650 | 17.99083 | 1914 ft | 138 kts | 200° |
| 2026-05-04 18:30 | 59.72709 | 17.98739 | 1728 ft | 136 kts | 200° |
| 2026-05-04 18:30 | 59.71797 | 17.98406 | 1545 ft | 135 kts | 200° |
| 2026-05-04 18:31 | 59.70882 | 17.98071 | 1364 ft | 135 kts | 198° |
| 2026-05-04 18:31 | 59.69944 | 17.97730 | 1183 ft | 135 kts | 197° |
| 2026-05-04 18:31 | 59.69022 | 17.97394 | 997 ft | 134 kts | 196° |
| 2026-05-04 18:31 | 59.68114 | 17.97064 | 806 ft | 134 kts | 196° |
| 2026-05-04 18:32 | 59.67202 | 17.96732 | 634 ft | 132 kts | 195° |
| 2026-05-04 18:32 | 59.66303 | 17.96409 | 452 ft | 131 kts | 193° |
| 2026-05-04 18:32 | 59.65403 | 17.96106 | 262 ft | 129 kts | 196° |
| 2026-05-04 18:32 | 59.64522 | 17.95776 | 120 ft | 128 kts | 195° |
| 2026-05-04 18:33 | 59.63751 | 17.95476 | 115 ft | 84 kts | 190° |
| 2026-05-04 18:33 | 59.63229 | 17.95270 | 126 ft | 62 kts | 191° |
| 2026-05-04 18:33 | 59.62955 | 17.95077 | 136 ft | 33 kts | 220° |
| 2026-05-04 18:33 | 59.62877 | 17.94947 | 137 ft | 0 kts | 220° |
| 2026-05-04 18:34 | 59.62874 | 17.94941 | 137 ft | 4 kts | 220° |
| 2026-05-04 18:34 | 59.62843 | 17.94843 | 137 ft | 13 kts | 267° |
| 2026-05-04 18:34 | 59.62937 | 17.94772 | 136 ft | 20 kts | 13° |
| 2026-05-04 18:35 | 59.63079 | 17.94826 | 128 ft | 21 kts | 10° |
| 2026-05-04 18:35 | 59.63228 | 17.94880 | 126 ft | 22 kts | 11° |
| 2026-05-04 18:35 | 59.63390 | 17.94940 | 121 ft | 26 kts | 10° |
| 2026-05-04 18:35 | 59.63580 | 17.95007 | 115 ft | 30 kts | 10° |
| 2026-05-04 18:36 | 59.63776 | 17.95078 | 111 ft | 27 kts | 10° |
| 2026-05-04 18:36 | 59.63966 | 17.95147 | 109 ft | 28 kts | 11° |
| 2026-05-04 18:36 | 59.64119 | 17.95203 | 107 ft | 18 kts | 10° |
| 2026-05-04 18:36 | 59.64239 | 17.95247 | 106 ft | 17 kts | 10° |
| 2026-05-04 18:37 | 59.64352 | 17.95288 | 106 ft | 16 kts | 10° |
| 2026-05-04 18:37 | 59.64365 | 17.95293 | 106 ft | 0 kts | 10° |
| 2026-05-04 18:39 | 59.64377 | 17.95297 | 106 ft | 6 kts | 10° |
| 2026-05-04 18:39 | 59.64446 | 17.95322 | 105 ft | 14 kts | 11° |
| 2026-05-04 18:40 | 59.64559 | 17.95363 | 105 ft | 17 kts | 10° |
| 2026-05-04 18:40 | 59.64667 | 17.95404 | 105 ft | 15 kts | 11° |
| 2026-05-04 18:40 | 59.64758 | 17.95438 | 106 ft | 13 kts | 10° |
| 2026-05-04 18:40 | 59.64837 | 17.95467 | 107 ft | 12 kts | 10° |
| 2026-05-04 18:41 | 59.64939 | 17.95503 | 110 ft | 16 kts | 10° |
| 2026-05-04 18:41 | 59.65062 | 17.95506 | 114 ft | 19 kts | 348° |
| 2026-05-04 18:41 | 59.65196 | 17.95435 | 119 ft | 21 kts | 345° |
| 2026-05-04 18:41 | 59.65348 | 17.95353 | 125 ft | 24 kts | 344° |
| 2026-05-04 18:42 | 59.65523 | 17.95261 | 126 ft | 28 kts | 345° |
| 2026-05-04 18:42 | 59.65692 | 17.95170 | 128 ft | 15 kts | 344° |
| 2026-05-04 18:42 | 59.65747 | 17.95011 | 124 ft | 17 kts | 259° |
| 2026-05-04 18:42 | 59.65717 | 17.94765 | 120 ft | 20 kts | 256° |
| 2026-05-04 18:43 | 59.65683 | 17.94500 | 121 ft | 20 kts | 255° |
| 2026-05-04 18:43 | 59.65648 | 17.94222 | 123 ft | 22 kts | 256° |
| 2026-05-04 18:43 | 59.65607 | 17.93902 | 116 ft | 26 kts | 256° |
| 2026-05-04 18:43 | 59.65572 | 17.93630 | 112 ft | 20 kts | 256° |
| 2026-05-04 18:44 | 59.65536 | 17.93346 | 112 ft | 22 kts | 255° |
| 2026-05-04 18:44 | 59.65524 | 17.93252 | 112 ft | 22 kts | 256° |
| 2026-05-04 18:44 | 59.65447 | 17.92763 | 111 ft | 22 kts | 246° |
| 2026-05-04 18:44 | 59.65371 | 17.92706 | 111 ft | 4 kts | 116° |
| 2026-05-04 18:45 | 59.65371 | 17.92708 | 111 ft | 1 kts | 113° |
| 2026-05-04 18:45 | 59.65370 | 17.92709 | 111 ft | 0 kts | 121° |
| 2026-05-04 18:45 | 59.65370 | 17.92726 | 112 ft | 4 kts | 85° |
| 2026-05-04 18:45 | 59.65396 | 17.92869 | 111 ft | 17 kts | 70° |
| 2026-05-04 18:46 | 59.65438 | 17.93140 | 112 ft | 19 kts | 75° |
| 2026-05-04 18:46 | 59.65374 | 17.93273 | 112 ft | 15 kts | 164° |
| 2026-05-04 18:46 | 59.65337 | 17.93173 | 112 ft | 3 kts | 246° |
| 2026-05-04 18:46 | 59.65336 | 17.93169 | 112 ft | 0 kts | 248° |
| 2026-05-04 18:47 | 59.65331 | 17.93144 | 112 ft | 0 kts | 250° |